sensor_id;sensor_type;location;lat;lon;timestamp;P1;durP1;ratioP1;P2;durP2;ratioP2
61572;SDS011;47465;43.094;12.434;2023-11-21T00:00:10;10.02;;;4.05;;
61572;SDS011;47465;43.094;12.434;2023-11-21T00:03:18;8.77;;;4.05;;
61572;SDS011;47465;43.094;12.434;2023-11-21T00:06:24;9.98;;;4.43;;
61572;SDS011;47465;43.094;12.434;2023-11-21T00:12:07;10.95;;;4.38;;
61572;SDS011;47465;43.094;12.434;2023-11-21T00:15:04;9.63;;;4.15;;
61572;SDS011;47465;43.094;12.434;2023-11-21T00:39:17;11.35;;;4.97;;
61572;SDS011;47465;43.094;12.434;2023-11-21T00:41:32;9.77;;;4.35;;
61572;SDS011;47465;43.094;12.434;2023-11-21T00:48:00;12.60;;;3.38;;
61572;SDS011;47465;43.094;12.434;2023-11-21T00:53:53;11.40;;;4.25;;
61572;SDS011;47465;43.094;12.434;2023-11-21T00:56:53;9.68;;;3.78;;
61572;SDS011;47465;43.094;12.434;2023-11-21T01:16:53;7.00;;;3.45;;
61572;SDS011;47465;43.094;12.434;2023-11-21T01:19:55;12.55;;;4.47;;
61572;SDS011;47465;43.094;12.434;2023-11-21T01:25:29;9.77;;;3.25;;
61572;SDS011;47465;43.094;12.434;2023-11-21T01:29:18;7.93;;;4.20;;
61572;SDS011;47465;43.094;12.434;2023-11-21T01:40:20;8.63;;;4.40;;
61572;SDS011;47465;43.094;12.434;2023-11-21T01:43:14;9.40;;;4.45;;
61572;SDS011;47465;43.094;12.434;2023-11-21T02:00:12;8.05;;;3.60;;
61572;SDS011;47465;43.094;12.434;2023-11-21T02:02:59;7.70;;;3.92;;
61572;SDS011;47465;43.094;12.434;2023-11-21T05:00:52;4.43;;;2.70;;
61572;SDS011;47465;43.094;12.434;2023-11-21T05:08:12;6.68;;;2.92;;
61572;SDS011;47465;43.094;12.434;2023-11-21T06:50:15;6.63;;;2.35;;
61572;SDS011;47465;43.094;12.434;2023-11-21T06:52:43;5.72;;;1.85;;
61572;SDS011;47465;43.094;12.434;2023-11-21T06:55:14;4.78;;;2.03;;
61572;SDS011;47465;43.094;12.434;2023-11-21T06:58:02;5.70;;;1.95;;
61572;SDS011;47465;43.094;12.434;2023-11-21T07:00:30;6.90;;;2.15;;
61572;SDS011;47465;43.094;12.434;2023-11-21T07:03:11;4.13;;;2.15;;
61572;SDS011;47465;43.094;12.434;2023-11-21T07:06:08;7.13;;;2.70;;
61572;SDS011;47465;43.094;12.434;2023-11-21T07:08:51;5.90;;;3.17;;
61572;SDS011;47465;43.094;12.434;2023-11-21T07:11:40;4.60;;;3.35;;
61572;SDS011;47465;43.094;12.434;2023-11-21T07:14:42;5.57;;;2.70;;
61572;SDS011;47465;43.094;12.434;2023-11-21T07:17:16;5.25;;;2.38;;
61572;SDS011;47465;43.094;12.434;2023-11-21T07:19:50;7.32;;;2.80;;
61572;SDS011;47465;43.094;12.434;2023-11-21T07:22:51;4.57;;;2.50;;
61572;SDS011;47465;43.094;12.434;2023-11-21T07:25:45;3.88;;;2.63;;
61572;SDS011;47465;43.094;12.434;2023-11-21T07:28:26;4.93;;;2.63;;
61572;SDS011;47465;43.094;12.434;2023-11-21T07:31:15;4.63;;;2.78;;
61572;SDS011;47465;43.094;12.434;2023-11-21T07:34:05;7.03;;;3.42;;
61572;SDS011;47465;43.094;12.434;2023-11-21T07:36:56;7.07;;;3.00;;
61572;SDS011;47465;43.094;12.434;2023-11-21T07:39:27;7.07;;;2.50;;
61572;SDS011;47465;43.094;12.434;2023-11-21T07:42:07;4.82;;;2.45;;
61572;SDS011;47465;43.094;12.434;2023-11-21T07:44:34;4.22;;;2.15;;
61572;SDS011;47465;43.094;12.434;2023-11-21T07:47:03;3.60;;;1.98;;
61572;SDS011;47465;43.094;12.434;2023-11-21T07:49:34;3.55;;;2.00;;
61572;SDS011;47465;43.094;12.434;2023-11-21T07:52:20;8.40;;;2.42;;
61572;SDS011;47465;43.094;12.434;2023-11-21T07:55:01;4.40;;;2.42;;
61572;SDS011;47465;43.094;12.434;2023-11-21T07:57:32;5.10;;;3.13;;
61572;SDS011;47465;43.094;12.434;2023-11-21T08:00:06;4.07;;;2.15;;
61572;SDS011;47465;43.094;12.434;2023-11-21T08:02:34;4.03;;;2.33;;
61572;SDS011;47465;43.094;12.434;2023-11-21T08:05:03;5.35;;;2.30;;
61572;SDS011;47465;43.094;12.434;2023-11-21T08:07:37;6.20;;;2.28;;
61572;SDS011;47465;43.094;12.434;2023-11-21T08:10:07;3.28;;;2.05;;
61572;SDS011;47465;43.094;12.434;2023-11-21T08:12:37;5.50;;;2.15;;
61572;SDS011;47465;43.094;12.434;2023-11-21T08:15:08;9.40;;;2.25;;
61572;SDS011;47465;43.094;12.434;2023-11-21T08:17:45;3.72;;;2.22;;
61572;SDS011;47465;43.094;12.434;2023-11-21T08:20:11;6.32;;;3.08;;
61572;SDS011;47465;43.094;12.434;2023-11-21T08:22:50;5.80;;;2.65;;
61572;SDS011;47465;43.094;12.434;2023-11-21T08:25:27;4.90;;;3.58;;
61572;SDS011;47465;43.094;12.434;2023-11-21T08:27:55;9.05;;;4.18;;
61572;SDS011;47465;43.094;12.434;2023-11-21T08:30:24;7.30;;;2.80;;
61572;SDS011;47465;43.094;12.434;2023-11-21T08:32:57;6.18;;;2.97;;
61572;SDS011;47465;43.094;12.434;2023-11-21T08:35:23;7.95;;;2.80;;
61572;SDS011;47465;43.094;12.434;2023-11-21T08:37:52;8.55;;;3.08;;
61572;SDS011;47465;43.094;12.434;2023-11-21T08:40:28;4.90;;;2.92;;
61572;SDS011;47465;43.094;12.434;2023-11-21T08:42:57;4.28;;;2.60;;
61572;SDS011;47465;43.094;12.434;2023-11-21T08:45:30;5.50;;;2.33;;
61572;SDS011;47465;43.094;12.434;2023-11-21T08:48:03;7.30;;;3.92;;
61572;SDS011;47465;43.094;12.434;2023-11-21T08:50:29;5.93;;;3.30;;
61572;SDS011;47465;43.094;12.434;2023-11-21T08:52:58;6.10;;;3.17;;
61572;SDS011;47465;43.094;12.434;2023-11-21T08:55:30;6.60;;;3.72;;
61572;SDS011;47465;43.094;12.434;2023-11-21T08:58:00;10.93;;;5.85;;
61572;SDS011;47465;43.094;12.434;2023-11-21T09:00:29;12.45;;;6.03;;
61572;SDS011;47465;43.094;12.434;2023-11-21T09:03:07;11.43;;;4.60;;
61572;SDS011;47465;43.094;12.434;2023-11-21T09:05:37;12.90;;;3.97;;
61572;SDS011;47465;43.094;12.434;2023-11-21T09:08:11;12.25;;;5.82;;
61572;SDS011;47465;43.094;12.434;2023-11-21T09:10:48;8.38;;;4.95;;
61572;SDS011;47465;43.094;12.434;2023-11-21T09:13:29;11.15;;;4.32;;
61572;SDS011;47465;43.094;12.434;2023-11-21T09:15:57;8.68;;;4.60;;
61572;SDS011;47465;43.094;12.434;2023-11-21T09:20:56;11.85;;;6.97;;
61572;SDS011;47465;43.094;12.434;2023-11-21T09:23:25;10.93;;;4.47;;
61572;SDS011;47465;43.094;12.434;2023-11-21T09:25:53;11.35;;;3.90;;
61572;SDS011;47465;43.094;12.434;2023-11-21T09:28:25;8.07;;;3.17;;
61572;SDS011;47465;43.094;12.434;2023-11-21T09:30:53;6.15;;;2.72;;
61572;SDS011;47465;43.094;12.434;2023-11-21T09:33:19;7.38;;;3.22;;
61572;SDS011;47465;43.094;12.434;2023-11-21T09:35:47;7.72;;;3.10;;
61572;SDS011;47465;43.094;12.434;2023-11-21T09:38:14;15.07;;;3.22;;
61572;SDS011;47465;43.094;12.434;2023-11-21T09:40:40;4.97;;;2.97;;
61572;SDS011;47465;43.094;12.434;2023-11-21T09:43:24;5.10;;;2.80;;
61572;SDS011;47465;43.094;12.434;2023-11-21T09:45:56;8.45;;;3.65;;
61572;SDS011;47465;43.094;12.434;2023-11-21T09:48:26;11.70;;;4.55;;
61572;SDS011;47465;43.094;12.434;2023-11-21T09:50:54;7.15;;;3.92;;
61572;SDS011;47465;43.094;12.434;2023-11-21T09:53:21;6.70;;;4.30;;
61572;SDS011;47465;43.094;12.434;2023-11-21T09:55:49;7.03;;;4.30;;
61572;SDS011;47465;43.094;12.434;2023-11-21T09:58:20;7.03;;;3.67;;
61572;SDS011;47465;43.094;12.434;2023-11-21T10:00:47;9.45;;;3.22;;
61572;SDS011;47465;43.094;12.434;2023-11-21T10:03:14;4.53;;;2.10;;
61572;SDS011;47465;43.094;12.434;2023-11-21T10:05:41;3.95;;;2.15;;
61572;SDS011;47465;43.094;12.434;2023-11-21T10:08:11;4.22;;;2.22;;
61572;SDS011;47465;43.094;12.434;2023-11-21T10:10:38;5.85;;;2.55;;
61572;SDS011;47465;43.094;12.434;2023-11-21T10:13:10;6.32;;;3.30;;
61572;SDS011;47465;43.094;12.434;2023-11-21T10:15:41;7.03;;;3.08;;
61572;SDS011;47465;43.094;12.434;2023-11-21T10:18:21;5.18;;;3.25;;
61572;SDS011;47465;43.094;12.434;2023-11-21T10:20:50;4.70;;;3.05;;
61572;SDS011;47465;43.094;12.434;2023-11-21T10:23:21;5.65;;;2.80;;
61572;SDS011;47465;43.094;12.434;2023-11-21T10:25:49;11.45;;;4.82;;
61572;SDS011;47465;43.094;12.434;2023-11-21T10:28:18;9.90;;;5.15;;
61572;SDS011;47465;43.094;12.434;2023-11-21T10:31:02;7.93;;;5.18;;
61572;SDS011;47465;43.094;12.434;2023-11-21T10:33:37;10.00;;;5.22;;
61572;SDS011;47465;43.094;12.434;2023-11-21T10:36:14;13.90;;;6.45;;
61572;SDS011;47465;43.094;12.434;2023-11-21T10:38:53;13.88;;;5.90;;
61572;SDS011;47465;43.094;12.434;2023-11-21T10:41:32;7.82;;;3.25;;
61572;SDS011;47465;43.094;12.434;2023-11-21T10:44:09;7.57;;;3.33;;
61572;SDS011;47465;43.094;12.434;2023-11-21T10:57:34;7.25;;;2.80;;
61572;SDS011;47465;43.094;12.434;2023-11-21T11:00:37;10.18;;;3.60;;
61572;SDS011;47465;43.094;12.434;2023-11-21T11:03:16;9.50;;;3.60;;
61572;SDS011;47465;43.094;12.434;2023-11-21T11:06:08;7.45;;;3.20;;
61572;SDS011;47465;43.094;12.434;2023-11-21T11:09:12;7.97;;;3.90;;
61572;SDS011;47465;43.094;12.434;2023-11-21T11:12:06;7.40;;;2.38;;
61572;SDS011;47465;43.094;12.434;2023-11-21T11:14:59;5.25;;;2.15;;
61572;SDS011;47465;43.094;12.434;2023-11-21T11:17:36;6.22;;;2.15;;
61572;SDS011;47465;43.094;12.434;2023-11-21T11:20:41;4.53;;;2.10;;
61572;SDS011;47465;43.094;12.434;2023-11-21T11:23:29;2.80;;;1.50;;
61572;SDS011;47465;43.094;12.434;2023-11-21T11:28:39;7.75;;;2.13;;
61572;SDS011;47465;43.094;12.434;2023-11-21T11:31:28;3.35;;;1.77;;
61572;SDS011;47465;43.094;12.434;2023-11-21T11:34:29;4.35;;;1.30;;
61572;SDS011;47465;43.094;12.434;2023-11-21T11:37:07;5.18;;;1.75;;
61572;SDS011;47465;43.094;12.434;2023-11-21T11:39:51;6.05;;;1.70;;
61572;SDS011;47465;43.094;12.434;2023-11-21T11:42:40;11.95;;;4.43;;
61572;SDS011;47465;43.094;12.434;2023-11-21T11:45:39;20.60;;;7.32;;
61572;SDS011;47465;43.094;12.434;2023-11-21T11:48:12;9.25;;;4.47;;
61572;SDS011;47465;43.094;12.434;2023-11-21T11:51:02;10.23;;;3.38;;
61572;SDS011;47465;43.094;12.434;2023-11-21T12:21:57;5.38;;;3.30;;
61572;SDS011;47465;43.094;12.434;2023-11-21T12:24:31;6.85;;;3.03;;
61572;SDS011;47465;43.094;12.434;2023-11-21T12:27:03;6.70;;;3.20;;
61572;SDS011;47465;43.094;12.434;2023-11-21T12:29:29;7.25;;;2.53;;
61572;SDS011;47465;43.094;12.434;2023-11-21T12:32:03;6.22;;;3.00;;
61572;SDS011;47465;43.094;12.434;2023-11-21T12:37:14;6.85;;;2.38;;
61572;SDS011;47465;43.094;12.434;2023-11-21T12:39:43;5.05;;;1.75;;
61572;SDS011;47465;43.094;12.434;2023-11-21T12:42:16;5.93;;;2.30;;
61572;SDS011;47465;43.094;12.434;2023-11-21T12:44:48;6.07;;;3.63;;
61572;SDS011;47465;43.094;12.434;2023-11-21T12:47:21;9.20;;;3.60;;
61572;SDS011;47465;43.094;12.434;2023-11-21T12:49:57;10.73;;;4.07;;
61572;SDS011;47465;43.094;12.434;2023-11-21T12:52:44;11.30;;;4.10;;
61572;SDS011;47465;43.094;12.434;2023-11-21T12:55:17;10.38;;;3.67;;
61572;SDS011;47465;43.094;12.434;2023-11-21T12:57:55;7.45;;;3.88;;
61572;SDS011;47465;43.094;12.434;2023-11-21T13:11:48;6.13;;;2.58;;
61572;SDS011;47465;43.094;12.434;2023-11-21T13:14:22;8.73;;;3.92;;
61572;SDS011;47465;43.094;12.434;2023-11-21T13:17:03;10.45;;;4.45;;
61572;SDS011;47465;43.094;12.434;2023-11-21T13:24:08;6.65;;;3.42;;
61572;SDS011;47465;43.094;12.434;2023-11-21T14:04:53;6.72;;;2.72;;
61572;SDS011;47465;43.094;12.434;2023-11-21T14:08:04;7.25;;;3.58;;
61572;SDS011;47465;43.094;12.434;2023-11-21T14:11:19;5.53;;;3.53;;
61572;SDS011;47465;43.094;12.434;2023-11-21T14:14:22;7.72;;;3.22;;
61572;SDS011;47465;43.094;12.434;2023-11-21T14:17:06;8.98;;;4.00;;
61572;SDS011;47465;43.094;12.434;2023-11-21T14:21:08;12.00;;;4.07;;
61572;SDS011;47465;43.094;12.434;2023-11-21T14:23:23;7.03;;;3.92;;
61572;SDS011;47465;43.094;12.434;2023-11-21T14:26:02;7.40;;;3.70;;
61572;SDS011;47465;43.094;12.434;2023-11-21T14:28:35;6.95;;;3.63;;
61572;SDS011;47465;43.094;12.434;2023-11-21T14:32:14;7.50;;;3.47;;
61572;SDS011;47465;43.094;12.434;2023-11-21T14:35:24;7.75;;;3.60;;
61572;SDS011;47465;43.094;12.434;2023-11-21T14:54:43;9.45;;;5.22;;
61572;SDS011;47465;43.094;12.434;2023-11-21T14:57:50;13.38;;;6.78;;
61572;SDS011;47465;43.094;12.434;2023-11-21T15:33:22;7.10;;;4.13;;
61572;SDS011;47465;43.094;12.434;2023-11-21T15:36:10;7.45;;;3.00;;
61572;SDS011;47465;43.094;12.434;2023-11-21T15:38:46;5.25;;;2.85;;
61572;SDS011;47465;43.094;12.434;2023-11-21T15:42:08;4.55;;;2.33;;
61572;SDS011;47465;43.094;12.434;2023-11-21T15:44:49;4.82;;;2.70;;
61572;SDS011;47465;43.094;12.434;2023-11-21T15:47:20;8.93;;;3.70;;
61572;SDS011;47465;43.094;12.434;2023-11-21T15:49:57;5.55;;;2.42;;
61572;SDS011;47465;43.094;12.434;2023-11-21T15:52:39;5.22;;;2.92;;
61572;SDS011;47465;43.094;12.434;2023-11-21T15:55:24;6.03;;;2.40;;
61572;SDS011;47465;43.094;12.434;2023-11-21T15:57:50;9.45;;;2.50;;
61572;SDS011;47465;43.094;12.434;2023-11-21T16:00:21;4.45;;;1.90;;
61572;SDS011;47465;43.094;12.434;2023-11-21T16:02:51;8.52;;;2.47;;
61572;SDS011;47465;43.094;12.434;2023-11-21T16:05:27;3.25;;;1.70;;
61572;SDS011;47465;43.094;12.434;2023-11-21T16:07:57;3.85;;;1.95;;
61572;SDS011;47465;43.094;12.434;2023-11-21T16:10:30;5.53;;;1.80;;
61572;SDS011;47465;43.094;12.434;2023-11-21T16:13:04;6.70;;;2.70;;
61572;SDS011;47465;43.094;12.434;2023-11-21T16:15:33;6.53;;;2.60;;
61572;SDS011;47465;43.094;12.434;2023-11-21T16:18:05;4.28;;;1.67;;
61572;SDS011;47465;43.094;12.434;2023-11-21T16:20:40;4.82;;;1.42;;
61572;SDS011;47465;43.094;12.434;2023-11-21T16:23:06;3.03;;;1.25;;
61572;SDS011;47465;43.094;12.434;2023-11-21T16:25:38;3.05;;;1.20;;
61572;SDS011;47465;43.094;12.434;2023-11-21T16:28:04;6.95;;;2.28;;
61572;SDS011;47465;43.094;12.434;2023-11-21T16:30:31;2.90;;;1.30;;
61572;SDS011;47465;43.094;12.434;2023-11-21T16:32:58;2.47;;;1.02;;
61572;SDS011;47465;43.094;12.434;2023-11-21T16:35:29;2.40;;;0.60;;
61572;SDS011;47465;43.094;12.434;2023-11-21T16:37:59;1.60;;;0.52;;
61572;SDS011;47465;43.094;12.434;2023-11-21T16:42:57;2.65;;;0.88;;
61572;SDS011;47465;43.094;12.434;2023-11-21T16:45:36;1.52;;;0.82;;
61572;SDS011;47465;43.094;12.434;2023-11-21T16:48:04;0.52;;;0.45;;
61572;SDS011;47465;43.094;12.434;2023-11-21T16:50:43;1.40;;;0.68;;
61572;SDS011;47465;43.094;12.434;2023-11-21T16:53:32;1.25;;;0.50;;
61572;SDS011;47465;43.094;12.434;2023-11-21T16:56:25;4.53;;;2.25;;
61572;SDS011;47465;43.094;12.434;2023-11-21T16:59:03;1.45;;;0.60;;
61572;SDS011;47465;43.094;12.434;2023-11-21T17:02:19;3.55;;;1.58;;
61572;SDS011;47465;43.094;12.434;2023-11-21T17:20:42;2.05;;;0.70;;
61572;SDS011;47465;43.094;12.434;2023-11-21T17:23:17;1.08;;;0.30;;
61572;SDS011;47465;43.094;12.434;2023-11-21T17:25:58;2.80;;;0.40;;
61572;SDS011;47465;43.094;12.434;2023-11-21T17:28:30;0.73;;;0.40;;
61572;SDS011;47465;43.094;12.434;2023-11-21T17:30:56;2.30;;;0.30;;
61572;SDS011;47465;43.094;12.434;2023-11-21T17:33:28;2.40;;;0.45;;
61572;SDS011;47465;43.094;12.434;2023-11-21T17:36:09;0.98;;;0.40;;
61572;SDS011;47465;43.094;12.434;2023-11-21T17:38:38;2.17;;;1.20;;
61572;SDS011;47465;43.094;12.434;2023-11-21T17:41:10;1.67;;;0.80;;
61572;SDS011;47465;43.094;12.434;2023-11-21T17:43:36;0.40;;;0.30;;
61572;SDS011;47465;43.094;12.434;2023-11-21T17:46:06;0.70;;;0.30;;
61572;SDS011;47465;43.094;12.434;2023-11-21T17:48:46;0.93;;;0.50;;
61572;SDS011;47465;43.094;12.434;2023-11-21T17:51:14;1.33;;;0.22;;
61572;SDS011;47465;43.094;12.434;2023-11-21T17:53:42;0.77;;;0.28;;
61572;SDS011;47465;43.094;12.434;2023-11-21T17:56:11;0.50;;;0.40;;
61572;SDS011;47465;43.094;12.434;2023-11-21T17:58:38;0.47;;;0.20;;
61572;SDS011;47465;43.094;12.434;2023-11-21T18:01:07;5.93;;;3.28;;
61572;SDS011;47465;43.094;12.434;2023-11-21T18:03:33;1.02;;;0.40;;
61572;SDS011;47465;43.094;12.434;2023-11-21T18:05:59;1.02;;;0.60;;
61572;SDS011;47465;43.094;12.434;2023-11-21T18:08:27;0.20;;;0.20;;
61572;SDS011;47465;43.094;12.434;2023-11-21T18:10:53;0.10;;;0.10;;
61572;SDS011;47465;43.094;12.434;2023-11-21T18:13:19;0.30;;;0.20;;
61572;SDS011;47465;43.094;12.434;2023-11-21T18:15:45;0.55;;;0.20;;
61572;SDS011;47465;43.094;12.434;2023-11-21T18:18:11;0.95;;;0.35;;
61572;SDS011;47465;43.094;12.434;2023-11-21T18:20:36;0.20;;;0.10;;
61572;SDS011;47465;43.094;12.434;2023-11-21T18:23:02;1.45;;;0.20;;
61572;SDS011;47465;43.094;12.434;2023-11-21T18:25:30;0.30;;;0.30;;
61572;SDS011;47465;43.094;12.434;2023-11-21T18:27:56;0.65;;;0.40;;
61572;SDS011;47465;43.094;12.434;2023-11-21T18:30:22;1.38;;;0.88;;
61572;SDS011;47465;43.094;12.434;2023-11-21T18:32:53;0.98;;;0.40;;
61572;SDS011;47465;43.094;12.434;2023-11-21T18:35:24;1.98;;;0.40;;
61572;SDS011;47465;43.094;12.434;2023-11-21T18:37:50;1.23;;;0.45;;
61572;SDS011;47465;43.094;12.434;2023-11-21T18:40:16;1.67;;;0.70;;
61572;SDS011;47465;43.094;12.434;2023-11-21T18:42:44;1.80;;;0.52;;
61572;SDS011;47465;43.094;12.434;2023-11-21T18:45:30;2.42;;;0.55;;
61572;SDS011;47465;43.094;12.434;2023-11-21T18:48:08;1.05;;;0.70;;
61572;SDS011;47465;43.094;12.434;2023-11-21T18:50:36;1.67;;;0.60;;
61572;SDS011;47465;43.094;12.434;2023-11-21T18:53:07;1.83;;;0.40;;
61572;SDS011;47465;43.094;12.434;2023-11-21T18:55:34;2.03;;;0.50;;
61572;SDS011;47465;43.094;12.434;2023-11-21T18:58:35;1.35;;;0.50;;
61572;SDS011;47465;43.094;12.434;2023-11-21T19:01:44;1.52;;;0.60;;
61572;SDS011;47465;43.094;12.434;2023-11-21T19:04:39;3.65;;;0.60;;
61572;SDS011;47465;43.094;12.434;2023-11-21T19:07:07;1.27;;;0.60;;
61572;SDS011;47465;43.094;12.434;2023-11-21T19:09:34;2.80;;;0.60;;
61572;SDS011;47465;43.094;12.434;2023-11-21T19:12:00;2.22;;;0.60;;
61572;SDS011;47465;43.094;12.434;2023-11-21T19:14:28;1.58;;;0.57;;
61572;SDS011;47465;43.094;12.434;2023-11-21T19:16:54;1.83;;;0.90;;
61572;SDS011;47465;43.094;12.434;2023-11-21T19:19:21;0.52;;;0.38;;
61572;SDS011;47465;43.094;12.434;2023-11-21T19:21:47;1.30;;;0.40;;
61572;SDS011;47465;43.094;12.434;2023-11-21T19:24:13;2.63;;;0.73;;
61572;SDS011;47465;43.094;12.434;2023-11-21T19:26:39;1.00;;;0.50;;
61572;SDS011;47465;43.094;12.434;2023-11-21T19:29:05;1.45;;;0.40;;
61572;SDS011;47465;43.094;12.434;2023-11-21T19:31:35;1.02;;;0.43;;
61572;SDS011;47465;43.094;12.434;2023-11-21T19:34:01;1.67;;;0.45;;
61572;SDS011;47465;43.094;12.434;2023-11-21T19:36:27;1.35;;;0.50;;
61572;SDS011;47465;43.094;12.434;2023-11-21T19:38:53;1.30;;;0.50;;
61572;SDS011;47465;43.094;12.434;2023-11-21T19:41:19;1.00;;;0.60;;
61572;SDS011;47465;43.094;12.434;2023-11-21T19:43:46;1.33;;;0.43;;
61572;SDS011;47465;43.094;12.434;2023-11-21T19:46:12;2.35;;;1.42;;
61572;SDS011;47465;43.094;12.434;2023-11-21T19:48:40;2.60;;;0.77;;
61572;SDS011;47465;43.094;12.434;2023-11-21T19:51:07;1.23;;;0.50;;
61572;SDS011;47465;43.094;12.434;2023-11-21T19:53:33;1.05;;;0.50;;
61572;SDS011;47465;43.094;12.434;2023-11-21T19:56:02;0.73;;;0.50;;
61572;SDS011;47465;43.094;12.434;2023-11-21T19:58:28;1.58;;;0.38;;
61572;SDS011;47465;43.094;12.434;2023-11-21T20:00:54;1.30;;;0.88;;
61572;SDS011;47465;43.094;12.434;2023-11-21T20:03:20;0.88;;;0.50;;
61572;SDS011;47465;43.094;12.434;2023-11-21T20:05:48;0.20;;;0.20;;
61572;SDS011;47465;43.094;12.434;2023-11-21T20:08:14;1.65;;;0.40;;
61572;SDS011;47465;43.094;12.434;2023-11-21T20:10:40;1.85;;;0.40;;
61572;SDS011;47465;43.094;12.434;2023-11-21T20:13:06;0.82;;;0.30;;
61572;SDS011;47465;43.094;12.434;2023-11-21T20:15:32;0.20;;;0.20;;
61572;SDS011;47465;43.094;12.434;2023-11-21T20:17:58;0.88;;;0.20;;
61572;SDS011;47465;43.094;12.434;2023-11-21T20:20:24;0.30;;;0.20;;
61572;SDS011;47465;43.094;12.434;2023-11-21T20:22:51;0.30;;;0.20;;
61572;SDS011;47465;43.094;12.434;2023-11-21T20:25:17;0.47;;;0.35;;
61572;SDS011;47465;43.094;12.434;2023-11-21T20:27:43;0.75;;;0.43;;
61572;SDS011;47465;43.094;12.434;2023-11-21T20:30:09;0.50;;;0.30;;
61572;SDS011;47465;43.094;12.434;2023-11-21T20:32:36;3.90;;;0.50;;
61572;SDS011;47465;43.094;12.434;2023-11-21T20:35:02;0.40;;;0.30;;
61572;SDS011;47465;43.094;12.434;2023-11-21T20:37:30;1.67;;;0.50;;
61572;SDS011;47465;43.094;12.434;2023-11-21T20:39:58;0.50;;;0.40;;
61572;SDS011;47465;43.094;12.434;2023-11-21T20:42:25;1.30;;;0.40;;
61572;SDS011;47465;43.094;12.434;2023-11-21T20:44:53;1.35;;;0.60;;
61572;SDS011;47465;43.094;12.434;2023-11-21T20:47:19;0.88;;;0.40;;
61572;SDS011;47465;43.094;12.434;2023-11-21T20:49:45;1.35;;;0.40;;
61572;SDS011;47465;43.094;12.434;2023-11-21T20:52:10;0.57;;;0.35;;
61572;SDS011;47465;43.094;12.434;2023-11-21T20:54:36;1.15;;;0.47;;
61572;SDS011;47465;43.094;12.434;2023-11-21T20:57:03;0.80;;;0.40;;
61572;SDS011;47465;43.094;12.434;2023-11-21T20:59:31;0.68;;;0.38;;
61572;SDS011;47465;43.094;12.434;2023-11-21T21:01:57;4.82;;;0.73;;
61572;SDS011;47465;43.094;12.434;2023-11-21T21:04:23;0.47;;;0.30;;
61572;SDS011;47465;43.094;12.434;2023-11-21T21:06:49;1.80;;;0.73;;
61572;SDS011;47465;43.094;12.434;2023-11-21T21:09:15;0.20;;;0.20;;
61572;SDS011;47465;43.094;12.434;2023-11-21T21:11:41;1.90;;;0.38;;
61572;SDS011;47465;43.094;12.434;2023-11-21T21:14:08;0.70;;;0.50;;
61572;SDS011;47465;43.094;12.434;2023-11-21T21:16:37;0.75;;;0.47;;
61572;SDS011;47465;43.094;12.434;2023-11-21T21:19:05;0.32;;;0.30;;
61572;SDS011;47465;43.094;12.434;2023-11-21T21:21:31;0.90;;;0.30;;
61572;SDS011;47465;43.094;12.434;2023-11-21T21:23:57;0.57;;;0.30;;
61572;SDS011;47465;43.094;12.434;2023-11-21T21:26:24;0.43;;;0.20;;
61572;SDS011;47465;43.094;12.434;2023-11-21T21:28:50;0.63;;;0.30;;
61572;SDS011;47465;43.094;12.434;2023-11-21T21:31:17;0.30;;;0.30;;
61572;SDS011;47465;43.094;12.434;2023-11-21T21:33:43;0.45;;;0.30;;
61572;SDS011;47465;43.094;12.434;2023-11-21T21:36:09;2.05;;;0.32;;
61572;SDS011;47465;43.094;12.434;2023-11-21T21:38:35;2.42;;;0.30;;
61572;SDS011;47465;43.094;12.434;2023-11-21T21:41:01;0.32;;;0.30;;
61572;SDS011;47465;43.094;12.434;2023-11-21T21:43:27;0.40;;;0.30;;
61572;SDS011;47465;43.094;12.434;2023-11-21T21:45:53;0.50;;;0.35;;
61572;SDS011;47465;43.094;12.434;2023-11-21T21:48:20;1.15;;;0.20;;
61572;SDS011;47465;43.094;12.434;2023-11-21T21:50:46;0.57;;;0.22;;
61572;SDS011;47465;43.094;12.434;2023-11-21T21:53:12;0.50;;;0.50;;
61572;SDS011;47465;43.094;12.434;2023-11-21T21:55:39;0.22;;;0.20;;
61572;SDS011;47465;43.094;12.434;2023-11-21T21:58:05;0.47;;;0.20;;
61572;SDS011;47465;43.094;12.434;2023-11-21T22:00:32;0.88;;;0.30;;
61572;SDS011;47465;43.094;12.434;2023-11-21T22:02:58;0.45;;;0.30;;
61572;SDS011;47465;43.094;12.434;2023-11-21T22:05:25;1.38;;;0.30;;
61572;SDS011;47465;43.094;12.434;2023-11-21T22:07:51;0.50;;;0.30;;
61572;SDS011;47465;43.094;12.434;2023-11-21T22:10:17;1.00;;;0.40;;
61572;SDS011;47465;43.094;12.434;2023-11-21T22:12:43;1.60;;;0.32;;
61572;SDS011;47465;43.094;12.434;2023-11-21T22:15:09;0.28;;;0.20;;
61572;SDS011;47465;43.094;12.434;2023-11-21T22:17:35;0.57;;;0.32;;
61572;SDS011;47465;43.094;12.434;2023-11-21T22:20:01;0.43;;;0.30;;
61572;SDS011;47465;43.094;12.434;2023-11-21T22:22:28;0.85;;;0.50;;
61572;SDS011;47465;43.094;12.434;2023-11-21T22:24:54;1.77;;;0.30;;
61572;SDS011;47465;43.094;12.434;2023-11-21T22:27:20;0.57;;;0.20;;
61572;SDS011;47465;43.094;12.434;2023-11-21T22:29:46;0.15;;;0.13;;
61572;SDS011;47465;43.094;12.434;2023-11-21T22:32:12;0.30;;;0.30;;
61572;SDS011;47465;43.094;12.434;2023-11-21T22:34:37;0.85;;;0.20;;
61572;SDS011;47465;43.094;12.434;2023-11-21T22:37:03;0.40;;;0.20;;
61572;SDS011;47465;43.094;12.434;2023-11-21T22:39:31;0.20;;;0.20;;
61572;SDS011;47465;43.094;12.434;2023-11-21T22:41:56;0.45;;;0.20;;
61572;SDS011;47465;43.094;12.434;2023-11-21T22:44:23;0.35;;;0.20;;
61572;SDS011;47465;43.094;12.434;2023-11-21T22:46:50;0.80;;;0.22;;
61572;SDS011;47465;43.094;12.434;2023-11-21T22:49:16;0.10;;;0.10;;
61572;SDS011;47465;43.094;12.434;2023-11-21T22:51:42;0.20;;;0.20;;
61572;SDS011;47465;43.094;12.434;2023-11-21T22:54:10;0.95;;;0.20;;
61572;SDS011;47465;43.094;12.434;2023-11-21T22:56:38;0.25;;;0.15;;
61572;SDS011;47465;43.094;12.434;2023-11-21T22:59:03;0.20;;;0.20;;
61572;SDS011;47465;43.094;12.434;2023-11-21T23:01:29;0.10;;;0.10;;
61572;SDS011;47465;43.094;12.434;2023-11-21T23:03:55;0.10;;;0.10;;
61572;SDS011;47465;43.094;12.434;2023-11-21T23:06:22;0.98;;;0.30;;
61572;SDS011;47465;43.094;12.434;2023-11-21T23:08:49;0.47;;;0.13;;
61572;SDS011;47465;43.094;12.434;2023-11-21T23:11:14;0.10;;;0.10;;
61572;SDS011;47465;43.094;12.434;2023-11-21T23:13:42;0.25;;;0.10;;
61572;SDS011;47465;43.094;12.434;2023-11-21T23:16:08;2.78;;;0.20;;
61572;SDS011;47465;43.094;12.434;2023-11-21T23:18:34;0.35;;;0.25;;
61572;SDS011;47465;43.094;12.434;2023-11-21T23:21:00;0.13;;;0.10;;
61572;SDS011;47465;43.094;12.434;2023-11-21T23:23:26;1.08;;;0.30;;
61572;SDS011;47465;43.094;12.434;2023-11-21T23:25:52;0.10;;;0.10;;
61572;SDS011;47465;43.094;12.434;2023-11-21T23:28:19;0.95;;;0.82;;
61572;SDS011;47465;43.094;12.434;2023-11-21T23:30:47;0.10;;;0.10;;
61572;SDS011;47465;43.094;12.434;2023-11-21T23:33:14;0.32;;;0.20;;
61572;SDS011;47465;43.094;12.434;2023-11-21T23:35:40;0.32;;;0.15;;
61572;SDS011;47465;43.094;12.434;2023-11-21T23:38:06;0.45;;;0.15;;
61572;SDS011;47465;43.094;12.434;2023-11-21T23:40:32;0.20;;;0.10;;
61572;SDS011;47465;43.094;12.434;2023-11-21T23:42:58;0.43;;;0.43;;
61572;SDS011;47465;43.094;12.434;2023-11-21T23:45:24;0.22;;;0.10;;
61572;SDS011;47465;43.094;12.434;2023-11-21T23:47:52;0.13;;;0.10;;
61572;SDS011;47465;43.094;12.434;2023-11-21T23:50:18;0.10;;;0.10;;
61572;SDS011;47465;43.094;12.434;2023-11-21T23:52:47;0.43;;;0.10;;
61572;SDS011;47465;43.094;12.434;2023-11-21T23:55:13;0.10;;;0.10;;